• Join FlightAware (Why Join?)
  • Login
  • US Flag 
05:14AM EST


 

Airport Tracker/Info


-or-


 

Live Flight TrackerFlight Track Log ✈ N91107 ✈ 21-Jul-2013 ✈ 65G - KAZO

Flight Track Log - Related Links

Times and Time Zones

All times are in EDT time to prevent confusion due to time zone crossing. See the N91107 flight status page for this flight to view local times or setup timezone preferences in your user account.

Time Position Orientation Groundspeed Altitude Reporting Facility
EDT Latitude Longitude Course Direction KTS MPH feet Rate Location/Type
07:40PM 42.6204 -84.3680 247° West  Level Estimated
07:41PM 42.6064 -84.4115 247° West  Level Estimated
07:42PM 42.5925 -84.4551 247° West  Level Estimated
07:43PM 42.5786 -84.4986 247° West  Level Estimated
07:44PM 42.5646 -84.5421 246° West  Level Estimated
07:45PM 42.5507 -84.5856 246° West  Level Estimated
07:46PM 42.5367 -84.6291 246° West  Level Estimated
07:47PM 42.5227 -84.6725 246° West  Level Estimated
07:48PM 42.5086 -84.7160 246° West  Level Estimated
07:48PM 42.3967 -84.8289 246° West 130 150 4,300  Level Chicago Center
07:49PM 42.4946 -84.7594 246° West  Level Estimated
07:49PM 42.3842 -84.8850 253° West 130 150 4,300  Level Chicago Center
07:50PM 42.4805 -84.8028 246° West  Level Estimated
07:50PM 42.3739 -84.9336 254° West 133 153 4,300  Level Chicago Center
07:51PM 42.4665 -84.8461 246° West  Level Estimated
07:51PM 42.3631 -84.9803 253° West 131 151 4,400  Level Chicago Center
07:52PM 42.4524 -84.8895 246° West  Level Estimated
07:52PM 42.3528 -85.0286 254° West 133 153 4,400  Level Chicago Center
07:53PM 42.4383 -84.9328 246° West  Level Estimated
07:53PM 42.3417 -85.0761 252° West 133 153 4,400  Level Chicago Center
07:54PM 42.3319 -85.1236 255° West 132 152 4,400  Level Chicago Center
07:55PM 42.3183 -85.1808 252° West 133 153 4,400  Level Chicago Center
07:56PM 42.3075 -85.2294 253° West 134 154 4,400  Level Chicago Center
07:57PM 42.2964 -85.2764 252° West 133 153 4,400 -60 Level Chicago Center
07:58PM 42.2864 -85.3253 255° West 133 153 4,300 -300 Descending Chicago Center
07:59PM 42.2742 -85.3736 251° West 134 154 3,800 -540 Descending Chicago Center
08:00PM 42.2764 -85.4289 273° West 141 162 3,200 -660 Descending Chicago Center
08:01PM 42.2836 -85.4942 279° West 147 169 2,500 -540 Descending Chicago Center
08:02PM 42.2833 -85.5342 269° West 127 146 2,200 -480 Descending Chicago Center
08:03PM 42.2692 -85.5564 229° Southwest 95 109 1,600 -480 Descending Chicago Center
08:04PM 42.2517 -85.5625 194° South 87 100 1,300 -300 Descending Chicago Center
08:06PM 42.2344 -85.5516 153° Southeast  Level Estimated
08:13PM 42.2333 -85.5500 251° West  Level FlightAware Approximate